Time;durP1;ratioP1;P1;durP2;ratioP2;P2;SDS_P1;SDS_P2;PMS_P1;PMS_P2;Temp;Humidity;BMP_temperature;BMP_pressure;BME280_temperature;BME280_humidity;BME280_pressure;Samples;Min_cycle;Max_cycle;Signal;HPM_P1;HPM_P2
2024/02/07 00:02:42;;;;;;;0.50;0.50;;;;;;;6.02;100.00;100417.22;10371981;28;20030;-73
2024/02/07 00:07:44;;;;;;;0.60;0.60;;;;;;;5.96;100.00;100416.09;10404643;28;20137;-73
2024/02/07 00:12:45;;;;;;;0.47;0.47;;;;;;;5.98;100.00;100415.91;10371734;28;20527;-73
2024/02/07 00:17:46;;;;;;;0.52;0.52;;;;;;;5.98;100.00;100413.22;10372474;28;20092;-73
2024/02/07 00:22:47;;;;;;;0.40;0.40;;;;;;;6.00;100.00;100416.59;10372041;28;20034;-73
2024/02/07 00:27:47;;;;;;;1.00;1.00;;;;;;;6.02;100.00;100430.66;10371844;28;20042;-73
2024/02/07 00:32:48;;;;;;;1.58;1.58;;;;;;;5.98;100.00;100421.28;10372030;28;20108;-73
2024/02/07 00:37:48;;;;;;;1.88;1.73;;;;;;;6.00;100.00;100421.97;10372612;28;20122;-73
2024/02/07 00:42:50;;;;;;;0.60;0.60;;;;;;;5.83;100.00;100423.88;10374081;28;20030;-73
2024/02/07 00:47:51;;;;;;;0.50;0.50;;;;;;;5.68;100.00;100401.47;10373322;28;20065;-73
2024/02/07 00:52:52;;;;;;;0.57;0.57;;;;;;;5.58;100.00;100418.69;10354042;28;20081;-73
2024/02/07 00:57:52;;;;;;;0.60;0.60;;;;;;;5.51;100.00;100411.50;10374676;28;20029;-73
2024/02/07 01:02:53;;;;;;;3.70;3.42;;;;;;;5.43;100.00;100425.81;10378783;28;20037;-73
2024/02/07 01:07:53;;;;;;;0.55;0.55;;;;;;;5.41;100.00;100419.75;10378697;28;20050;-73
2024/02/07 01:12:54;;;;;;;0.60;0.60;;;;;;;5.35;100.00;100415.94;10380304;28;20048;-73
2024/02/07 01:17:54;;;;;;;2.03;1.88;;;;;;;5.36;100.00;100411.41;10412800;28;20045;-73
2024/02/07 01:22:55;;;;;;;0.52;0.52;;;;;;;5.34;100.00;100410.75;10379643;28;20030;-73
2024/02/07 01:27:56;;;;;;;0.50;0.50;;;;;;;5.35;100.00;100415.09;10409555;28;20041;-73
2024/02/07 01:32:57;;;;;;;0.60;0.60;;;;;;;5.35;100.00;100421.28;10377005;28;20437;-73
2024/02/07 01:38:04;;;;;;;5.28;4.75;;;;;;;5.34;100.00;100419.63;10376600;28;20172;-73
2024/02/07 01:43:05;;;;;;;0.40;0.40;;;;;;;5.39;100.00;100419.09;10407274;28;20400;-73
2024/02/07 01:48:06;;;;;;;0.57;0.57;;;;;;;5.42;100.00;100420.59;10376967;28;20053;-73
2024/02/07 01:53:09;;;;;;;0.60;0.60;;;;;;;5.34;100.00;100419.63;10359201;28;20485;-73
2024/02/07 01:58:10;;;;;;;0.50;0.50;;;;;;;5.36;100.00;100424.84;10375709;28;20536;-71
2024/02/07 02:03:11;;;;;;;0.60;0.60;;;;;;;5.31;100.00;100432.56;10408013;28;20042;-72
2024/02/07 02:08:12;;;;;;;0.60;0.60;;;;;;;5.22;100.00;100437.13;10378111;28;20064;-71
2024/02/07 02:13:13;;;;;;;0.47;0.47;;;;;;;5.25;100.00;100441.31;10357997;28;20096;-72
2024/02/07 02:18:14;;;;;;;0.55;0.55;;;;;;;5.12;100.00;100452.59;10376173;28;20034;-70
2024/02/07 02:23:45;;;;;;;0.50;0.50;;;;;;;5.01;100.00;100466.38;10406993;28;20046;-71
2024/02/07 02:28:52;;;;;;;0.50;0.50;;;;;;;5.00;100.00;100462.88;10376140;28;20041;-71
2024/02/07 02:33:55;;;;;;;0.55;0.55;;;;;;;4.98;100.00;100475.63;10359165;28;20034;-70
2024/02/07 02:38:55;;;;;;;0.65;0.65;;;;;;;4.63;100.00;100474.19;10375082;28;20105;-71
2024/02/07 02:43:56;;;;;;;0.70;0.70;;;;;;;4.41;100.00;100471.19;10375135;28;20026;-71
2024/02/07 02:48:56;;;;;;;0.55;0.55;;;;;;;4.39;100.00;100477.72;10374165;28;20045;-71
2024/02/07 02:53:56;;;;;;;0.55;0.55;;;;;;;4.39;100.00;100473.19;10374001;28;20049;-72
2024/02/07 02:58:58;;;;;;;0.63;0.63;;;;;;;4.35;100.00;100469.16;10374343;28;20061;-71
2024/02/07 03:03:58;;;;;;;0.60;0.60;;;;;;;4.42;100.00;100467.50;10373698;28;20435;-70
2024/02/07 03:09:09;;;;;;;0.57;0.57;;;;;;;4.43;100.00;100461.16;10372204;28;20050;-72
2024/02/07 03:14:09;;;;;;;0.50;0.50;;;;;;;4.42;100.00;100458.63;10373782;28;20129;-70
2024/02/07 03:19:11;;;;;;;0.40;0.40;;;;;;;4.46;100.00;100451.91;10373573;28;20038;-71
2024/02/07 03:24:11;;;;;;;0.73;0.73;;;;;;;4.54;100.00;100449.22;10373516;28;20034;-71
2024/02/07 03:29:12;;;;;;;0.65;0.65;;;;;;;4.48;100.00;100444.53;10373736;28;20034;-70
2024/02/07 03:34:12;;;;;;;0.70;0.70;;;;;;;4.54;100.00;100440.34;10374785;28;20061;-72
2024/02/07 03:39:13;;;;;;;0.50;0.50;;;;;;;4.57;100.00;100442.69;10376673;28;20112;-70
2024/02/07 03:44:14;;;;;;;0.50;0.50;;;;;;;4.60;100.00;100445.03;10376649;28;20038;-70
2024/02/07 03:49:16;;;;;;;0.50;0.50;;;;;;;4.63;100.00;100447.38;10375618;28;20034;-71
2024/02/07 03:54:16;;;;;;;0.65;0.65;;;;;;;4.65;100.00;100451.53;10371417;28;20030;-71
2024/02/07 03:59:18;;;;;;;0.50;0.50;;;;;;;4.65;100.00;100448.84;10371849;28;20034;-70
2024/02/07 04:04:20;;;;;;;0.63;0.63;;;;;;;4.68;100.00;100441.50;10371856;28;20113;-70
2024/02/07 04:09:20;;;;;;;0.60;0.60;;;;;;;4.70;100.00;100440.31;10372903;28;20081;-70
2024/02/07 05:17:51;;;;;;;0.50;0.50;;;;;;;4.95;100.00;100472.47;10377334;28;20462;-69
2024/02/07 05:22:51;;;;;;;0.85;0.85;;;;;;;4.89;100.00;100473.97;10409726;28;20042;-69
2024/02/07 05:27:52;;;;;;;0.70;0.70;;;;;;;4.85;100.00;100470.81;10378256;28;20037;-69
2024/02/07 05:32:53;;;;;;;0.60;0.60;;;;;;;4.87;100.00;100481.34;10377388;28;20096;-69
2024/02/07 05:37:53;;;;;;;0.60;0.60;;;;;;;4.89;100.00;100490.06;10377349;28;20093;-71
2024/02/07 05:42:54;;;;;;;0.50;0.50;;;;;;;4.91;100.00;100504.13;10376347;28;20446;-71
2024/02/07 05:47:55;;;;;;;0.60;0.60;;;;;;;4.96;100.00;100500.97;10376746;28;20053;-72
2024/02/07 05:52:55;;;;;;;0.50;0.50;;;;;;;4.97;100.00;100500.78;10376182;28;20048;-70
2024/02/07 05:57:55;;;;;;;0.52;0.52;;;;;;;4.95;100.00;100491.25;10375947;28;20029;-70
2024/02/07 06:02:56;;;;;;;0.50;0.50;;;;;;;4.96;100.00;100492.91;10376345;28;20148;-70
2024/02/07 06:07:56;;;;;;;0.60;0.60;;;;;;;4.93;100.00;100504.81;10378052;28;20057;-71
2024/02/07 06:12:57;;;;;;;0.60;0.60;;;;;;;4.93;100.00;100504.81;10377769;28;20112;-71
2024/02/07 06:17:57;;;;;;;0.90;0.90;;;;;;;4.96;100.00;100517.06;10379064;28;20434;-70
2024/02/07 06:22:57;;;;;;;0.60;0.60;;;;;;;4.99;100.00;100508.66;10378057;28;20381;-70
2024/02/07 06:27:58;;;;;;;0.60;0.60;;;;;;;4.99;100.00;100520.25;10408164;28;20125;-70
2024/02/07 06:32:58;;;;;;;0.60;0.60;;;;;;;4.95;100.00;100513.53;10408868;28;20049;-71
2024/02/07 06:37:59;;;;;;;0.50;0.50;;;;;;;4.93;100.00;100515.56;10375556;28;20421;-69
2024/02/07 06:42:59;;;;;;;0.50;0.50;;;;;;;4.88;100.00;100507.16;10376314;28;20069;-69
2024/02/07 06:48:00;;;;;;;3.33;3.22;;;;;;;4.89;100.00;100520.41;10378350;28;20389;-71
2024/02/07 06:53:01;;;;;;;0.60;0.60;;;;;;;4.90;100.00;100538.19;10382498;28;20048;-70
2024/02/07 06:58:01;;;;;;;0.52;0.52;;;;;;;4.92;100.00;100547.94;10412464;28;20030;-70
2024/02/07 07:03:02;;;;;;;0.70;0.70;;;;;;;4.95;100.00;100572.56;10376869;28;20072;-70
2024/02/07 07:08:02;;;;;;;0.63;0.63;;;;;;;4.95;100.00;100580.63;10374799;28;20050;-70
2024/02/07 07:13:03;;;;;;;0.47;0.47;;;;;;;4.93;100.00;100557.66;10374566;28;20046;-70
2024/02/07 07:18:03;;;;;;;0.60;0.60;;;;;;;4.94;100.00;100570.88;10388888;28;20034;-71
2024/02/07 07:23:04;;;;;;;0.70;0.70;;;;;;;4.93;100.00;100584.47;10374280;28;20037;-68
2024/02/07 07:28:05;;;;;;;1.42;1.38;;;;;;;4.92;100.00;100585.50;10372833;28;20036;-70
2024/02/07 07:33:05;;;;;;;1.17;1.17;;;;;;;4.89;100.00;100570.56;10373344;28;20406;-69
2024/02/07 07:38:07;;;;;;;1.38;1.38;;;;;;;4.87;100.00;100592.19;10372475;28;20037;-69
2024/02/07 07:43:07;;;;;;;0.60;0.60;;;;;;;4.86;100.00;100595.06;10372659;28;20525;-68
2024/02/07 07:48:08;;;;;;;0.63;0.63;;;;;;;4.86;100.00;100584.31;10372537;28;20092;-69
2024/02/07 07:53:08;;;;;;;0.70;0.70;;;;;;;4.77;100.00;100591.53;10371959;28;20065;-68
2024/02/07 07:58:09;;;;;;;2.05;2.05;;;;;;;4.82;100.00;100599.09;10354507;28;20065;-69
2024/02/07 08:03:10;;;;;;;0.95;0.95;;;;;;;4.84;100.00;100591.69;10372537;28;20053;-69
2024/02/07 08:08:11;;;;;;;0.68;0.68;;;;;;;4.87;100.00;100596.72;10377019;28;20053;-68
2024/02/07 08:13:11;;;;;;;0.70;0.70;;;;;;;4.90;100.00;100618.69;10380390;28;20069;-69
2024/02/07 08:18:11;;;;;;;6.25;1.98;;;;;;;4.99;100.00;100622.22;10410905;28;20037;-67
2024/02/07 08:23:12;;;;;;;1.58;1.58;;;;;;;5.03;100.00;100618.19;10378639;28;20130;-68
2024/02/07 08:28:13;;;;;;;1.98;1.92;;;;;;;5.13;100.00;100626.06;10377322;28;20080;-69
2024/02/07 08:33:13;;;;;;;2.00;2.00;;;;;;;5.15;100.00;100609.78;10380121;28;20033;-69
2024/02/07 08:38:13;;;;;;;0.60;0.60;;;;;;;5.14;100.00;100625.06;10380564;28;20038;-70
2024/02/07 08:43:14;;;;;;;0.70;0.70;;;;;;;5.22;100.00;100632.25;10380903;28;20040;-68
2024/02/07 08:48:14;;;;;;;1.70;1.60;;;;;;;5.28;100.00;100647.69;10379488;28;20492;-68
2024/02/07 08:53:14;;;;;;;1.05;1.05;;;;;;;5.35;100.00;100654.88;10410602;28;20034;-67
2024/02/07 08:58:15;;;;;;;0.68;0.68;;;;;;;5.46;100.00;100645.66;10379402;28;20037;-67
2024/02/07 09:03:15;;;;;;;0.65;0.65;;;;;;;5.53;100.00;100645.81;10378664;28;20458;-69
2024/02/07 09:08:16;;;;;;;0.70;0.70;;;;;;;5.56;100.00;100646.31;10395062;28;20057;-69
2024/02/07 09:13:17;;;;;;;0.50;0.50;;;;;;;5.49;100.00;100658.75;10379495;28;20445;-69
2024/02/07 09:18:17;;;;;;;1.80;1.75;;;;;;;5.79;100.00;100648.25;10409436;28;20124;-67
2024/02/07 09:23:17;;;;;;;0.57;0.57;;;;;;;5.80;100.00;100621.22;10393062;28;20034;-66
2024/02/07 09:28:18;;;;;;;0.40;0.40;;;;;;;5.66;100.00;100613.88;10378799;28;20038;-66
2024/02/07 09:33:18;;;;;;;0.50;0.50;;;;;;;5.47;100.00;100635.75;10392665;28;20482;-67
2024/02/07 09:38:21;;;;;;;0.60;0.60;;;;;;;5.21;100.00;100646.69;10393148;28;20029;-66
2024/02/07 09:43:22;;;;;;;0.50;0.50;;;;;;;5.53;100.00;100645.81;10376976;28;20541;-68
2024/02/07 09:48:24;;;;;;;0.55;0.55;;;;;;;5.87;100.00;100644.69;10374988;28;20470;-69
2024/02/07 09:53:24;;;;;;;0.65;0.65;;;;;;;5.97;100.00;100631.97;10377631;28;20123;-69
2024/02/07 09:58:25;;;;;;;0.60;0.60;;;;;;;6.12;100.00;100626.66;10376426;28;20508;-67
2024/02/07 10:03:25;;;;;;;0.50;0.50;;;;;;;6.11;100.00;100625.00;10358765;28;20470;-67
2024/02/07 10:08:29;;;;;;;0.60;0.60;;;;;;;6.14;100.00;100633.56;10358578;28;20467;-68
2024/02/07 10:13:29;;;;;;;0.60;0.60;;;;;;;6.16;100.00;100622.59;10375671;28;20117;-65
2024/02/07 10:18:30;;;;;;;0.50;0.50;;;;;;;6.27;100.00;100643.75;10391553;28;20034;-67
2024/02/07 10:23:30;;;;;;;0.50;0.50;;;;;;;6.23;100.00;100643.25;10408154;28;20030;-66
2024/02/07 10:28:31;;;;;;;0.52;0.52;;;;;;;6.31;100.00;100645.06;10372439;28;20461;-66
2024/02/07 10:33:36;;;;;;;19.20;7.80;;;;;;;6.53;100.00;100643.41;10375186;28;20406;-67
2024/02/07 10:38:36;;;;;;;23.63;6.13;;;;;;;7.05;100.00;100644.56;10373438;28;20088;-66
2024/02/07 10:43:36;;;;;;;28.73;6.72;;;;;;;7.67;100.00;100639.78;10372837;28;20404;-69
2024/02/07 10:48:37;;;;;;;12.93;4.30;;;;;;;7.83;100.00;100637.94;10375900;28;20153;-66
2024/02/07 10:53:37;;;;;;;13.60;5.13;;;;;;;8.09;100.00;100626.66;10373851;28;20049;-66
2024/02/07 10:58:37;;;;;;;13.95;4.20;;;;;;;8.24;100.00;100642.81;10374158;28;20402;-66
2024/02/07 11:03:38;;;;;;;15.80;4.65;;;;;;;8.25;100.00;100649.88;10374359;28;20041;-66
2024/02/07 11:08:38;;;;;;;23.23;7.57;;;;;;;8.55;100.00;100656.94;10375797;28;20484;-68
2024/02/07 11:13:39;;;;;;;11.63;4.45;;;;;;;8.52;100.00;100657.31;10374723;28;20111;-69
2024/02/07 11:18:39;;;;;;;10.43;4.20;;;;;;;8.73;100.00;100652.97;10372277;28;20037;-67
2024/02/07 11:23:39;;;;;;;14.85;5.15;;;;;;;8.81;100.00;100650.16;10372828;28;20038;-68
2024/02/07 11:28:40;;;;;;;19.27;5.43;;;;;;;8.81;100.00;100644.75;10356591;28;20034;-69
2024/02/07 11:33:43;;;;;;;16.10;4.72;;;;;;;8.82;100.00;100651.81;10373097;28;20038;-67
2024/02/07 11:39:01;;;;;;;21.23;3.25;;;;;;;9.25;100.00;100644.53;10372529;28;20051;-68
2024/02/07 11:44:04;;;;;;;17.52;4.20;;;;;;;9.63;100.00;100641.47;10371617;28;20080;-67
2024/02/07 11:49:04;;;;;;;4.22;3.17;;;;;;;9.19;100.00;100630.94;10371341;28;20113;-67
2024/02/07 11:54:05;;;;;;;21.77;3.38;;;;;;;8.91;100.00;100615.56;10372674;28;20045;-68
2024/02/07 11:59:06;;;;;;;6.15;2.78;;;;;;;9.18;100.00;100611.22;10372616;28;20034;-68
2024/02/07 12:04:06;;;;;;;9.43;3.92;;;;;;;9.58;100.00;100606.09;10371061;28;20046;-69
2024/02/07 12:09:08;;;;;;;13.90;3.85;;;;;;;9.85;100.00;100601.69;10372116;28;20072;-68
2024/02/07 12:14:09;;;;;;;7.30;2.67;;;;;;;10.09;100.00;100592.22;10354657;28;20057;-67
2024/02/07 12:19:10;;;;;;;10.52;3.45;;;;;;;9.48;100.00;100598.34;10370735;28;20045;-67
2024/02/07 12:24:10;;;;;;;11.55;3.33;;;;;;;9.40;100.00;100593.09;10370350;28;20066;-67
2024/02/07 12:29:11;;;;;;;14.35;3.15;;;;;;;9.92;100.00;100585.47;10370577;28;20049;-68
2024/02/07 12:34:11;;;;;;;13.45;3.10;;;;;;;9.77;100.00;100574.81;10372271;28;20038;-67
2024/02/07 12:39:12;;;;;;;4.90;2.97;;;;;;;9.75;100.00;100572.28;10371920;28;20037;-66
2024/02/07 12:44:14;;;;;;;3.80;2.08;;;;;;;9.63;100.00;100568.47;10371682;28;20432;-67
2024/02/07 12:49:14;;;;;;;6.85;2.85;;;;;;;9.43;100.00;100578.34;10354271;28;20088;-67
2024/02/07 12:54:14;;;;;;;6.47;2.83;;;;;;;9.12;100.00;100574.16;10375010;28;20061;-68
2024/02/07 12:59:28;;;;;;;10.55;3.35;;;;;;;9.22;100.00;100580.09;10378217;28;20025;-68
2024/02/07 13:04:30;;;;;;;4.38;2.80;;;;;;;9.31;100.00;100576.19;10379056;28;20030;-69
2024/02/07 13:09:30;;;;;;;8.07;2.63;;;;;;;9.40;100.00;100574.16;10378193;28;20083;-67
2024/02/07 13:14:31;;;;;;;5.85;2.78;;;;;;;9.71;100.00;100573.75;10378082;28;20468;-69
2024/02/07 13:19:31;;;;;;;11.15;4.15;;;;;;;9.39;100.00;100580.63;10378119;28;20026;-68
2024/02/07 13:24:32;;;;;;;4.20;2.63;;;;;;;9.00;100.00;100573.88;10410262;28;20029;-67
2024/02/07 13:29:33;;;;;;;7.38;2.90;;;;;;;9.05;100.00;100565.19;10378966;28;20092;-68
2024/02/07 13:34:33;;;;;;;10.57;3.88;;;;;;;8.80;100.00;100549.41;10377755;28;20083;-68
2024/02/07 13:39:34;;;;;;;4.88;2.13;;;;;;;8.68;100.00;100547.41;10379469;28;20100;-69
2024/02/07 13:44:34;;;;;;;5.75;2.83;;;;;;;8.45;100.00;100551.13;10402979;28;20057;-67
2024/02/07 13:49:35;;;;;;;13.52;2.95;;;;;;;8.36;100.00;100545.03;10392623;28;20401;-67
2024/02/07 13:54:36;;;;;;;14.02;3.08;;;;;;;8.19;100.00;100537.34;10388837;28;20414;-67
2024/02/07 13:59:36;;;;;;;7.55;2.47;;;;;;;8.14;100.00;100529.84;10398440;28;20025;-67
2024/02/07 14:04:36;;;;;;;23.02;2.72;;;;;;;8.13;100.00;100520.88;10394374;28;20092;-66
2024/02/07 14:09:37;;;;;;;8.25;2.95;;;;;;;7.99;100.00;100529.88;10412876;28;20062;-68
2024/02/07 14:14:37;;;;;;;7.78;3.05;;;;;;;8.03;100.00;100524.94;10378702;28;20038;-67
2024/02/07 14:19:38;;;;;;;13.55;3.22;;;;;;;7.99;100.00;100508.31;10382675;28;20484;-67
2024/02/07 14:24:38;;;;;;;6.00;1.88;;;;;;;7.86;100.00;100510.84;10382737;28;20034;-67
2024/02/07 14:29:39;;;;;;;5.43;1.63;;;;;;;7.84;100.00;100502.94;10385122;28;20079;-68
2024/02/07 14:34:39;;;;;;;13.57;3.05;;;;;;;7.95;100.00;100490.84;10381267;28;20111;-68
2024/02/07 14:39:40;;;;;;;5.60;2.90;;;;;;;8.05;100.00;100506.72;10376618;28;20401;-69
2024/02/07 14:44:40;;;;;;;16.67;2.83;;;;;;;8.01;100.00;100492.78;10382229;28;20088;-69
2024/02/07 14:49:41;;;;;;;25.23;4.38;;;;;;;7.80;100.00;100498.97;10382935;28;20026;-66
2024/02/07 14:54:41;;;;;;;5.88;2.22;;;;;;;7.61;100.00;100496.84;10380721;28;20408;-68
2024/02/07 14:59:41;;;;;;;9.68;3.10;;;;;;;7.28;100.00;100489.19;10417264;28;20085;-68
2024/02/07 15:04:42;;;;;;;11.10;3.67;;;;;;;7.24;100.00;100490.56;10380244;28;20049;-68
2024/02/07 15:09:43;;;;;;;10.02;3.03;;;;;;;7.22;100.00;100481.84;10380631;28;20069;-67
2024/02/07 15:14:43;;;;;;;5.03;1.83;;;;;;;7.18;100.00;100472.47;10379767;28;20042;-68
2024/02/07 15:19:44;;;;;;;8.57;2.28;;;;;;;7.05;100.00;100477.66;10374617;28;20038;-67
2024/02/07 15:24:44;;;;;;;10.27;3.08;;;;;;;6.87;100.00;100472.63;10373791;28;20038;-67
2024/02/07 15:29:44;;;;;;;8.65;2.72;;;;;;;6.68;100.00;100471.31;10392250;28;20038;-67
2024/02/07 15:34:45;;;;;;;6.88;2.50;;;;;;;6.63;100.00;100458.38;10373888;28;20049;-68
2024/02/07 15:39:45;;;;;;;5.35;2.50;;;;;;;6.58;100.00;100458.09;10372833;28;20061;-66
2024/02/07 15:44:46;;;;;;;8.75;3.47;;;;;;;6.60;100.00;100456.06;10373274;28;20046;-69
2024/02/07 15:49:46;;;;;;;15.10;3.53;;;;;;;6.49;100.00;100438.50;10372619;28;20058;-67
2024/02/07 15:54:47;;;;;;;9.10;3.13;;;;;;;6.26;100.00;100432.34;10371463;28;20049;-68
2024/02/07 15:59:48;;;;;;;8.45;2.78;;;;;;;6.33;100.00;100445.91;10373375;28;20046;-67
2024/02/07 16:04:48;;;;;;;10.95;3.67;;;;;;;6.32;100.00;100452.28;10373168;28;20117;-66
2024/02/07 16:09:48;;;;;;;16.42;3.17;;;;;;;6.28;100.00;100443.72;10370766;28;20053;-66
2024/02/07 16:14:49;;;;;;;25.15;4.47;;;;;;;6.18;100.00;100443.97;10371688;28;20047;-68
2024/02/07 16:19:49;;;;;;;4.95;2.92;;;;;;;6.09;100.00;100439.69;10372954;28;20054;-67
2024/02/07 16:24:49;;;;;;;14.90;3.90;;;;;;;5.98;100.00;100440.94;10373006;28;20034;-69
2024/02/07 16:29:50;;;;;;;12.18;5.03;;;;;;;5.93;100.00;100437.13;10378612;28;20520;-67
2024/02/07 16:34:51;;;;;;;12.65;4.47;;;;;;;5.86;100.00;100426.22;10380491;28;20049;-68
2024/02/07 16:39:51;;;;;;;14.48;3.72;;;;;;;5.74;100.00;100420.44;10379280;28;20054;-67
2024/02/07 16:44:52;;;;;;;5.30;3.55;;;;;;;5.58;100.00;100432.09;10397801;28;20041;-67
2024/02/07 16:49:52;;;;;;;16.80;3.05;;;;;;;5.57;100.00;100430.41;10383309;28;20092;-66
2024/02/07 16:54:53;;;;;;;27.20;4.65;;;;;;;5.60;100.00;100432.75;10379468;28;20033;-66
2024/02/07 16:59:54;;;;;;;10.60;3.97;;;;;;;5.54;100.00;100433.44;10378644;28;20462;-67
2024/02/07 17:04:54;;;;;;;9.88;4.43;;;;;;;5.50;100.00;100436.69;10378611;28;20038;-68
2024/02/07 17:09:55;;;;;;;12.15;3.83;;;;;;;5.56;100.00;100444.03;10378726;28;20050;-67
2024/02/07 17:14:55;;;;;;;26.13;4.15;;;;;;;5.53;100.00;100449.75;10377486;28;20034;-68
2024/02/07 17:19:56;;;;;;;10.82;3.65;;;;;;;5.49;100.00;100459.19;10378201;28;20026;-68
2024/02/07 17:24:57;;;;;;;10.63;3.42;;;;;;;5.41;100.00;100453.84;10378148;28;20038;-68
2024/02/07 17:29:57;;;;;;;14.80;4.07;;;;;;;5.44;100.00;100453.50;10378611;28;20041;-67
2024/02/07 17:34:58;;;;;;;14.70;4.10;;;;;;;5.38;100.00;100451.50;10377661;28;20038;-69
2024/02/07 17:39:58;;;;;;;13.10;4.93;;;;;;;5.31;100.00;100446.00;10376451;28;20516;-68
2024/02/07 17:44:59;;;;;;;9.07;4.60;;;;;;;5.26;100.00;100453.72;10376579;28;20045;-67
2024/02/07 17:49:59;;;;;;;14.57;4.50;;;;;;;5.09;100.00;100439.53;10408325;28;20069;-68
2024/02/07 17:54:59;;;;;;;9.43;4.97;;;;;;;5.04;100.00;100437.38;10376638;28;20037;-66
2024/02/07 18:00:00;;;;;;;24.42;6.53;;;;;;;4.92;100.00;100443.28;10376740;28;20096;-68
2024/02/07 18:05:00;;;;;;;20.17;6.40;;;;;;;4.93;100.00;100432.38;10376880;28;20038;-67
2024/02/07 18:10:01;;;;;;;19.40;5.28;;;;;;;4.82;100.00;100444.31;10376745;28;20096;-67
2024/02/07 18:15:03;;;;;;;13.43;5.78;;;;;;;4.59;100.00;100437.97;10376223;28;20074;-67
2024/02/07 18:20:04;;;;;;;13.45;6.28;;;;;;;4.37;100.00;100450.22;10375032;28;20450;-67
2024/02/07 18:25:05;;;;;;;11.68;5.80;;;;;;;4.19;100.00;100453.09;10376113;28;20134;-68
2024/02/07 18:30:06;;;;;;;24.95;5.45;;;;;;;4.02;100.00;100448.72;10376911;28;20045;-69
2024/02/07 18:35:07;;;;;;;12.50;6.35;;;;;;;3.83;100.00;100450.72;10390166;28;20045;-67
2024/02/07 18:40:08;;;;;;;6.57;4.40;;;;;;;3.73;100.00;100455.34;10373614;28;20061;-67
2024/02/07 18:45:08;;;;;;;10.77;4.95;;;;;;;3.65;100.00;100450.00;10376307;28;20033;-68
2024/02/07 18:50:09;;;;;;;21.42;5.28;;;;;;;3.62;100.00;100450.31;10373462;28;20034;-69
2024/02/07 18:55:09;;;;;;;16.55;5.03;;;;;;;3.69;100.00;100441.47;10374904;28;20113;-69
2024/02/07 19:00:10;;;;;;;19.70;5.63;;;;;;;3.75;100.00;100434.63;10375368;28;20026;-68
2024/02/07 19:05:11;;;;;;;13.52;4.25;;;;;;;3.70;100.00;100444.97;10375139;28;20125;-69
2024/02/07 19:10:11;;;;;;;14.65;4.32;;;;;;;3.64;100.00;100443.81;10360009;28;20120;-67
2024/02/07 19:15:12;;;;;;;14.95;5.03;;;;;;;3.66;100.00;100440.97;10409363;28;20037;-69
2024/02/07 19:20:12;;;;;;;15.15;5.50;;;;;;;3.66;100.00;100454.34;10372862;28;20049;-66
2024/02/07 19:25:12;;;;;;;19.85;5.53;;;;;;;3.62;100.00;100445.81;10373868;28;20132;-67
2024/02/07 19:30:13;;;;;;;15.10;6.20;;;;;;;3.58;100.00;100447.13;10372658;28;20042;-68
2024/02/07 19:35:14;;;;;;;25.35;6.10;;;;;;;3.55;100.00;100460.84;10373364;28;20037;-69
2024/02/07 19:40:14;;;;;;;17.30;6.88;;;;;;;3.56;100.00;100440.28;10374359;28;20092;-69
2024/02/07 19:45:15;;;;;;;12.27;6.35;;;;;;;3.57;100.00;100449.97;10372299;28;20057;-68
2024/02/07 19:50:15;;;;;;;16.98;4.68;;;;;;;3.49;100.00;100438.25;10373750;28;20134;-67
2024/02/07 19:55:16;;;;;;;14.82;4.88;;;;;;;3.37;100.00;100444.88;10373770;28;20045;-68
2024/02/07 20:00:16;;;;;;;8.82;5.15;;;;;;;3.32;100.00;100454.41;10377553;28;20049;-69
2024/02/07 20:05:18;;;;;;;26.17;8.18;;;;;;;3.26;100.00;100459.41;10387688;28;20474;-69
2024/02/07 20:10:18;;;;;;;23.17;8.07;;;;;;;3.22;100.00;100470.56;10388078;28;20064;-70
2024/02/07 20:15:19;;;;;;;12.52;6.97;;;;;;;3.15;100.00;100469.56;10405286;28;20042;-69
2024/02/07 20:20:19;;;;;;;15.25;7.50;;;;;;;3.08;100.00;100455.16;10389269;28;20084;-67
2024/02/07 20:25:20;;;;;;;13.30;5.80;;;;;;;3.01;100.00;100460.28;10385418;28;20038;-67
2024/02/07 20:30:20;;;;;;;19.58;7.53;;;;;;;2.93;100.00;100455.72;10386567;28;20033;-69
2024/02/07 20:35:20;;;;;;;20.95;7.65;;;;;;;2.91;100.00;100460.41;10401624;28;20076;-68
2024/02/07 20:40:21;;;;;;;20.83;6.70;;;;;;;2.87;100.00;100459.06;10386229;28;20484;-69
2024/02/07 20:45:22;;;;;;;15.48;6.97;;;;;;;2.81;100.00;100467.72;10387073;28;20061;-69
2024/02/07 20:50:23;;;;;;;9.30;6.35;;;;;;;2.75;100.00;100473.69;10385114;28;20096;-68
2024/02/07 20:55:24;;;;;;;13.70;6.75;;;;;;;2.71;100.00;100456.25;10390098;28;20038;-68
2024/02/07 21:00:24;;;;;;;29.60;7.63;;;;;;;2.65;100.00;100454.22;10391174;28;20137;-69
2024/02/07 21:05:25;;;;;;;13.20;7.28;;;;;;;2.65;100.00;100456.88;10419727;28;20034;-70
2024/02/07 21:10:25;;;;;;;9.88;5.65;;;;;;;2.56;100.00;100439.97;10386156;28;20077;-69
2024/02/07 21:15:25;;;;;;;19.92;6.47;;;;;;;2.50;100.00;100441.44;10380424;28;20033;-66
2024/02/07 21:20:30;;;;;;;12.52;7.32;;;;;;;2.49;100.00;100430.88;10378644;28;20073;-69
2024/02/07 21:25:30;;;;;;;15.38;7.40;;;;;;;2.51;100.00;100429.75;10378180;28;20034;-69
2024/02/07 21:30:32;;;;;;;22.63;7.60;;;;;;;2.51;100.00;100431.56;10377766;28;20029;-69
2024/02/07 21:35:33;;;;;;;11.43;7.70;;;;;;;2.47;100.00;100425.72;10378896;28;20527;-69
2024/02/07 21:40:33;;;;;;;17.98;7.35;;;;;;;2.46;100.00;100420.53;10378118;28;20037;-65
2024/02/07 21:45:35;;;;;;;12.45;7.45;;;;;;;2.45;100.00;100426.84;10377583;28;20053;-67
2024/02/07 21:50:35;;;;;;;15.48;7.90;;;;;;;2.44;100.00;100428.69;10377599;28;20374;-67
2024/02/07 21:55:36;;;;;;;20.90;8.52;;;;;;;2.47;100.00;100430.22;10375549;28;20045;-68
2024/02/07 22:00:36;;;;;;;21.40;8.40;;;;;;;2.47;100.00;100427.56;10376746;28;20038;-67
2024/02/07 22:05:37;;;;;;;13.80;6.57;;;;;;;2.52;100.00;100430.56;10375679;28;20030;-67
2024/02/07 22:10:37;;;;;;;11.25;8.35;;;;;;;2.50;100.00;100433.41;10358865;28;20058;-67
2024/02/07 22:15:38;;;;;;;13.98;7.10;;;;;;;2.52;100.00;100443.94;10376890;28;20045;-68
2024/02/07 22:20:38;;;;;;;12.90;6.78;;;;;;;2.46;100.00;100437.41;10376533;28;20026;-67
2024/02/07 22:25:38;;;;;;;18.58;6.22;;;;;;;2.38;100.00;100436.50;10392721;28;20626;-67
2024/02/07 22:30:42;;;;;;;12.63;7.38;;;;;;;2.26;100.00;100441.25;10377031;28;20044;-68
2024/02/07 22:35:44;;;;;;;27.65;8.52;;;;;;;2.24;100.00;100435.25;10375895;28;20397;-67
2024/02/07 22:40:44;;;;;;;12.82;5.90;;;;;;;2.17;100.00;100427.00;10376869;28;20030;-67
2024/02/07 22:45:45;;;;;;;15.48;6.90;;;;;;;2.16;100.00;100441.34;10375625;28;20458;-67
2024/02/07 22:50:46;;;;;;;23.73;7.22;;;;;;;2.19;100.00;100422.31;10376250;28;20117;-67
2024/02/07 22:55:46;;;;;;;10.68;6.72;;;;;;;2.20;100.00;100412.47;10375187;28;20092;-68
2024/02/07 23:00:49;;;;;;;19.08;8.63;;;;;;;2.15;100.00;100396.94;10357412;28;20065;-67
2024/02/07 23:05:50;;;;;;;20.50;7.43;;;;;;;2.06;100.00;100385.34;10374803;28;20050;-66
2024/02/07 23:10:50;;;;;;;13.82;7.32;;;;;;;1.96;100.00;100381.09;10389638;28;20058;-67
2024/02/07 23:15:52;;;;;;;18.05;8.10;;;;;;;1.99;100.00;100383.44;10374634;28;20072;-66
2024/02/07 23:20:53;;;;;;;13.07;6.75;;;;;;;2.05;100.00;100402.38;10375606;28;20439;-66
2024/02/07 23:25:53;;;;;;;17.95;7.70;;;;;;;1.93;100.00;100405.44;10406721;28;20033;-66
2024/02/07 23:30:54;;;;;;;10.88;6.38;;;;;;;1.88;100.00;100400.53;10374610;28;20021;-68
2024/02/07 23:35:55;;;;;;;13.13;6.50;;;;;;;1.89;100.00;100412.06;10373964;28;20525;-67
2024/02/07 23:40:55;;;;;;;11.80;7.72;;;;;;;1.84;100.00;100404.50;10373609;28;20034;-67
2024/02/07 23:45:56;;;;;;;14.98;7.85;;;;;;;1.88;100.00;100405.88;10372555;28;20046;-67
2024/02/07 23:50:56;;;;;;;9.52;8.13;;;;;;;2.01;100.00;100406.34;10373358;28;20088;-67
2024/02/07 23:55:57;;;;;;;18.30;11.02;;;;;;;2.08;100.00;100399.38;10373652;28;20033;-66
